createdAt,value
2018-06-28T00:00:08.146Z,82.67
2018-06-28T00:02:56.634Z,82.85
2018-06-28T00:08:35.995Z,83.07
2018-06-28T00:11:29.172Z,83.23
2018-06-28T00:14:19.458Z,83.26
2018-06-28T00:17:03.108Z,82.80
2018-06-28T00:19:58.837Z,83.20
2018-06-28T00:22:48.776Z,82.96
2018-06-28T00:25:44.767Z,83.52
2018-06-28T00:28:39.207Z,83.09
2018-06-28T00:31:29.538Z,83.13
2018-06-28T00:34:17.222Z,83.53
2018-06-28T00:37:11.124Z,83.58
2018-06-28T00:40:07.873Z,83.35
2018-06-28T00:42:51.256Z,83.44
2018-06-28T00:45:41.129Z,83.30
2018-06-28T00:48:31.757Z,83.86
2018-06-28T00:51:13.451Z,84.07
2018-06-28T00:54:03.258Z,83.94
2018-06-28T00:56:47.053Z,83.81
2018-06-28T00:59:31.237Z,84.09
2018-06-28T01:02:22.049Z,83.86
2018-06-28T01:05:12.393Z,83.91
2018-06-28T01:08:01.194Z,83.99
2018-06-28T01:10:52.329Z,83.92
2018-06-28T01:13:41.110Z,83.84
2018-06-28T01:16:30.619Z,83.87
2018-06-28T01:19:20.095Z,84.41
2018-06-28T01:22:21.128Z,84.60
2018-06-28T01:25:11.224Z,84.39
2018-06-28T01:27:58.132Z,84.48
2018-06-28T01:33:34.862Z,84.43
2018-06-28T01:36:04.846Z,84.51
2018-06-28T01:38:47.176Z,84.59
2018-06-28T01:41:38.530Z,84.57
2018-06-28T01:44:27.964Z,84.54
2018-06-28T01:47:18.528Z,84.53
2018-06-28T01:55:51.587Z,84.29
2018-06-28T01:58:40.133Z,84.27
2018-06-28T02:04:21.847Z,84.55
2018-06-28T02:07:15.655Z,84.44
2018-06-28T02:09:59.683Z,84.59
2018-06-28T02:12:50.346Z,84.60
2018-06-28T02:18:27.065Z,84.77
2018-06-28T02:21:19.707Z,84.97
2018-06-28T02:24:11.106Z,85.25
2018-06-28T02:27:04.617Z,85.37
2018-06-28T02:29:53.961Z,85.48
2018-06-28T02:35:33.813Z,85.54
2018-06-28T02:38:24.370Z,85.73
2018-06-28T02:41:13.264Z,85.44
2018-06-28T02:46:59.120Z,85.53
2018-06-28T02:49:55.627Z,85.65
2018-06-28T02:58:33.203Z,85.70
2018-06-28T03:01:24.375Z,85.59
2018-06-28T03:04:14.408Z,85.81
2018-06-28T03:07:04.854Z,85.85
2018-06-28T03:09:53.273Z,85.91
2018-06-28T03:12:38.083Z,85.94
2018-06-28T03:15:23.236Z,86.25
2018-06-28T03:18:09.450Z,86.18
2018-06-28T03:20:56.347Z,86.37
2018-06-28T03:23:48.271Z,86.20
2018-06-28T03:26:36.667Z,86.08
2018-06-28T03:32:14.172Z,86.12
2018-06-28T03:35:01.558Z,86.23
2018-06-28T03:37:43.086Z,86.27
2018-06-28T03:40:36.104Z,86.16
2018-06-28T03:43:27.287Z,86.28
2018-06-28T03:46:11.170Z,85.89
2018-06-28T03:49:00.764Z,86.08
2018-06-28T03:51:50.260Z,85.92
2018-06-28T03:54:42.684Z,86.12
2018-06-28T03:57:28.276Z,86.31
2018-06-28T04:00:16.174Z,86.50
2018-06-28T04:03:09.315Z,86.37
2018-06-28T04:06:03.109Z,86.73
2018-06-28T04:08:56.935Z,86.56
2018-06-28T04:11:49.623Z,86.02
2018-06-28T04:20:28.765Z,85.95
2018-06-28T04:23:15.998Z,85.52
2018-06-28T04:31:51.416Z,85.38
2018-06-28T04:34:41.083Z,85.10
2018-06-28T04:37:31.301Z,84.65
2018-06-28T04:40:19.845Z,84.46
2018-06-28T04:43:09.649Z,83.86
2018-06-28T04:46:00.810Z,83.98
2018-06-28T04:48:49.234Z,84.15
2018-06-28T04:51:41.627Z,84.29
2018-06-28T04:54:38.306Z,84.00
2018-06-28T04:57:31.555Z,84.09
2018-06-28T05:00:24.598Z,83.93
2018-06-28T05:03:19.193Z,83.93
2018-06-28T05:09:04.550Z,83.18
2018-06-28T05:11:55.735Z,83.03
2018-06-28T05:14:46.985Z,82.95
2018-06-28T05:17:30.491Z,82.16
2018-06-28T05:20:10.143Z,81.62
2018-06-28T05:25:51.093Z,80.96
2018-06-28T05:28:43.304Z,81.39
2018-06-28T05:31:32.164Z,81.06
2018-06-28T05:42:48.208Z,78.25
2018-06-28T05:45:25.721Z,77.72
2018-06-28T05:48:09.440Z,77.84
2018-06-28T05:50:55.782Z,76.82
2018-06-28T05:53:35.570Z,76.56
2018-06-28T05:56:13.587Z,76.28
2018-06-28T05:58:59.580Z,76.05
2018-06-28T06:01:40.397Z,75.94
2018-06-28T06:04:30.287Z,75.33
2018-06-28T06:07:16.734Z,74.52
2018-06-28T06:09:53.481Z,75.16
2018-06-28T06:12:33.703Z,74.63
2018-06-28T06:15:17.320Z,74.11
2018-06-28T06:18:05.717Z,74.55
2018-06-28T06:20:48.962Z,73.54
2018-06-28T06:23:40.124Z,72.37
2018-06-28T06:26:27.131Z,71.59
2018-06-28T06:29:21.377Z,71.30
2018-06-28T06:32:13.779Z,70.99
2018-06-28T06:34:50.265Z,70.61
2018-06-28T06:37:23.595Z,69.83
2018-06-28T06:40:01.285Z,68.04
2018-06-28T06:42:36.703Z,59.19
2018-06-28T06:45:13.885Z,44.89
2018-06-28T06:47:57.797Z,35.33
2018-06-28T06:50:39.120Z,28.23
2018-06-28T06:53:26.587Z,27.51
2018-06-28T06:56:07.741Z,26.38
2018-06-28T06:58:47.048Z,25.62
2018-06-28T07:01:32.760Z,20.57
2018-06-28T07:04:11.484Z,18.52
2018-06-28T07:06:49.835Z,19.99
2018-06-28T07:09:36.413Z,20.06
2018-06-28T07:12:18.109Z,17.80
2018-06-28T07:14:56.515Z,18.29
2018-06-28T07:17:40.820Z,17.83
2018-06-28T07:20:29.320Z,18.33
2018-06-28T07:23:11.115Z,17.33
2018-06-28T07:25:52.283Z,15.94
2018-06-28T07:28:40.763Z,13.54
2018-06-28T07:31:28.194Z,18.39
2018-06-28T07:34:09.035Z,19.80
2018-06-28T07:36:48.580Z,16.92
2018-06-28T07:39:32.304Z,16.00
2018-06-28T07:42:12.938Z,13.67
2018-06-28T07:44:53.180Z,12.40
2018-06-28T07:47:39.264Z,13.12
2018-06-28T07:50:21.094Z,11.95
2018-06-28T07:53:02.891Z,15.16
2018-06-28T07:55:46.133Z,13.93
2018-06-28T07:58:29.737Z,13.27
2018-06-28T08:01:13.757Z,10.84
2018-06-28T08:03:52.155Z,11.05
2018-06-28T08:06:40.977Z,11.30
2018-06-28T08:09:29.614Z,11.67
2018-06-28T08:12:09.206Z,10.82
2018-06-28T08:14:54.316Z,8.52
2018-06-28T08:17:39.210Z,13.51
2018-06-28T08:20:28.630Z,12.89
2018-06-28T08:23:05.620Z,12.67
2018-06-28T08:25:46.658Z,11.42
2018-06-28T08:28:30.961Z,15.21
2018-06-28T08:31:15.112Z,14.62
2018-06-28T08:33:53.922Z,19.49
2018-06-28T08:36:31.727Z,24.22
2018-06-28T08:39:10.954Z,32.07
2018-06-28T08:41:53.195Z,34.59
2018-06-28T08:44:34.573Z,37.24
2018-06-28T08:47:19.383Z,38.00
2018-06-28T08:49:57.650Z,39.60
2018-06-28T08:52:46.602Z,41.21
2018-06-28T08:55:33.898Z,41.96
2018-06-28T08:58:15.271Z,42.19
2018-06-28T09:00:56.362Z,43.55
2018-06-28T09:06:33.347Z,41.60
2018-06-28T09:09:18.959Z,41.60
2018-06-28T09:12:04.593Z,42.70
2018-06-28T09:14:46.616Z,42.70
2018-06-28T09:17:32.854Z,43.54
2018-06-28T09:20:16.493Z,42.92
2018-06-28T09:23:03.603Z,41.44
2018-06-28T09:28:40.268Z,42.68
2018-06-28T09:31:28.310Z,42.74
2018-06-28T09:34:19.472Z,42.35
2018-06-28T09:36:57.491Z,42.25
2018-06-28T09:42:22.944Z,40.85
2018-06-28T09:45:06.829Z,41.20
2018-06-28T09:47:44.353Z,40.40
2018-06-28T09:50:29.869Z,43.57
2018-06-28T09:53:16.750Z,43.86
2018-06-28T09:55:57.404Z,40.53
2018-06-28T09:58:45.476Z,39.13
2018-06-28T10:01:19.081Z,38.83
2018-06-28T10:04:10.627Z,37.96
2018-06-28T10:06:54.697Z,36.55
2018-06-28T10:09:40.737Z,37.22
2018-06-28T10:12:23.925Z,37.92
2018-06-28T10:17:50.773Z,37.69
2018-06-28T10:20:33.584Z,34.97
2018-06-28T10:23:18.575Z,32.85
2018-06-28T10:26:05.108Z,32.39
2018-06-28T10:28:44.202Z,31.16
2018-06-28T10:34:22.826Z,29.87
2018-06-28T10:37:03.424Z,29.76
2018-06-28T10:39:50.140Z,30.03
2018-06-28T10:42:42.092Z,30.84
2018-06-28T10:45:26.210Z,30.43
2018-06-28T10:48:13.485Z,29.58
2018-06-28T10:51:00.854Z,30.99
2018-06-28T10:53:44.442Z,31.32
2018-06-28T10:56:27.384Z,31.70
2018-06-28T11:02:10.236Z,32.23
2018-06-28T11:04:56.279Z,32.09
2018-06-28T11:07:43.255Z,31.92
2018-06-28T11:10:27.201Z,31.46
2018-06-28T11:13:10.322Z,31.60
2018-06-28T11:15:50.991Z,31.50
2018-06-28T11:18:39.108Z,31.76
2018-06-28T11:21:25.548Z,32.13
2018-06-28T11:24:13.031Z,31.87
2018-06-28T11:26:46.051Z,32.55
2018-06-28T11:29:30.870Z,31.71
2018-06-28T11:32:10.634Z,32.38
2018-06-28T11:34:48.901Z,32.07
2018-06-28T11:37:32.702Z,32.14
2018-06-28T11:40:18.171Z,31.04
2018-06-28T11:42:59.599Z,32.54
2018-06-28T11:45:40.896Z,32.92
2018-06-28T11:51:17.035Z,32.08
2018-06-28T11:54:02.116Z,32.57
2018-06-28T11:56:47.109Z,32.05
2018-06-28T11:59:32.483Z,32.41
2018-06-28T12:02:15.092Z,31.35
2018-06-28T12:04:59.480Z,32.30
2018-06-28T12:07:45.734Z,33.62
2018-06-28T12:10:24.671Z,33.43
2018-06-28T12:13:13.442Z,32.62
2018-06-28T12:15:57.305Z,32.50
2018-06-28T12:18:40.051Z,32.06
2018-06-28T12:21:12.193Z,32.10
2018-06-28T12:23:59.177Z,32.12
2018-06-28T12:26:36.322Z,31.56
2018-06-28T12:29:31.119Z,32.35
2018-06-28T12:32:14.927Z,31.46
2018-06-28T12:34:51.628Z,32.22
2018-06-28T12:40:24.623Z,32.67
2018-06-28T12:43:03.273Z,32.27
2018-06-28T12:45:37.346Z,31.78
2018-06-28T12:48:21.110Z,31.30
2018-06-28T12:51:06.477Z,31.93
2018-06-28T12:53:46.993Z,31.58
2018-06-28T12:56:27.430Z,32.16
2018-06-28T12:59:17.276Z,31.86
2018-06-28T13:01:56.674Z,31.39
2018-06-28T13:07:35.110Z,31.39
2018-06-28T13:10:19.537Z,31.84
2018-06-28T13:13:03.831Z,32.61
2018-06-28T13:15:44.320Z,32.67
2018-06-28T13:18:32.730Z,32.15
2018-06-28T13:21:10.650Z,31.98
2018-06-28T13:23:59.439Z,31.89
2018-06-28T13:26:50.131Z,32.53
2018-06-28T13:29:27.447Z,32.12
2018-06-28T13:32:01.663Z,32.54
2018-06-28T13:34:41.495Z,32.40
2018-06-28T13:37:20.890Z,32.55
2018-06-28T13:39:52.149Z,32.91
2018-06-28T13:42:35.924Z,32.77
2018-06-28T13:45:19.901Z,33.00
2018-06-28T13:48:11.097Z,32.78
2018-06-28T13:51:00.099Z,32.25
2018-06-28T13:53:38.464Z,32.63
2018-06-28T13:56:13.567Z,32.90
2018-06-28T13:59:00.278Z,33.18
2018-06-28T14:01:49.908Z,32.87
2018-06-28T14:04:32.896Z,33.72
2018-06-28T14:07:11.747Z,33.43
2018-06-28T14:09:55.811Z,33.04
2018-06-28T14:12:39.980Z,33.54
2018-06-28T14:15:26.100Z,33.26
2018-06-28T14:17:56.044Z,33.68
2018-06-28T14:20:41.714Z,33.51
2018-06-28T14:23:18.788Z,33.50
2018-06-28T14:26:04.428Z,33.33
2018-06-28T14:28:48.685Z,33.24
2018-06-28T14:34:32.638Z,33.57
2018-06-28T14:37:10.931Z,33.86
2018-06-28T14:39:53.589Z,33.80
2018-06-28T14:42:41.097Z,33.40
2018-06-28T14:45:22.890Z,33.57
2018-06-28T14:48:04.317Z,33.66
2018-06-28T14:50:42.354Z,33.33
2018-06-28T14:53:31.841Z,33.99
2018-06-28T14:56:10.734Z,33.40
2018-06-28T14:58:52.918Z,33.20
2018-06-28T15:01:39.640Z,33.13
2018-06-28T15:04:27.743Z,33.20
2018-06-28T15:07:04.510Z,33.91
2018-06-28T15:09:47.707Z,33.94
2018-06-28T15:12:32.393Z,33.92
2018-06-28T15:15:14.792Z,34.34
2018-06-28T15:17:55.309Z,34.03
2018-06-28T15:23:31.117Z,33.31
2018-06-28T15:26:20.124Z,33.65
2018-06-28T15:29:04.030Z,33.63
2018-06-28T15:31:47.115Z,34.05
2018-06-28T15:34:32.769Z,34.49
2018-06-28T15:37:12.173Z,33.68
2018-06-28T15:39:53.638Z,33.94
2018-06-28T15:42:38.048Z,33.62
2018-06-28T15:45:19.599Z,33.29
2018-06-28T15:47:59.579Z,33.98
2018-06-28T15:50:34.518Z,33.58
2018-06-28T15:53:24.176Z,33.50
2018-06-28T15:56:11.784Z,33.69
2018-06-28T15:58:58.286Z,33.85
2018-06-28T16:01:44.090Z,33.80
2018-06-28T16:07:12.337Z,34.17
2018-06-28T16:09:58.607Z,33.31
2018-06-28T16:12:38.051Z,33.07
2018-06-28T16:15:24.763Z,33.80
2018-06-28T16:18:12.920Z,33.50
2018-06-28T16:20:54.827Z,34.43
2018-06-28T16:23:33.293Z,33.56
2018-06-28T16:26:18.103Z,34.17
2018-06-28T16:29:02.793Z,33.83
2018-06-28T16:31:48.879Z,34.01
2018-06-28T16:34:30.847Z,34.58
2018-06-28T16:39:55.457Z,34.55
2018-06-28T16:42:42.072Z,34.03
2018-06-28T16:45:20.672Z,35.38
2018-06-28T16:48:17.686Z,36.01
2018-06-28T16:51:01.131Z,35.67
2018-06-28T16:53:38.409Z,35.75
2018-06-28T16:56:20.250Z,35.67
2018-06-28T16:59:05.144Z,35.52
2018-06-28T17:01:50.168Z,35.92
2018-06-28T17:04:26.591Z,35.93
2018-06-28T17:07:05.324Z,36.10
2018-06-28T17:09:36.885Z,36.87
2018-06-28T17:12:06.649Z,36.83
2018-06-28T17:15:06.081Z,36.54
2018-06-28T17:17:42.152Z,37.05
2018-06-28T17:20:21.692Z,37.48
2018-06-28T17:23:03.106Z,36.86
2018-06-28T17:25:41.292Z,37.15
2018-06-28T17:28:17.748Z,37.12
2018-06-28T17:30:54.142Z,36.58
2018-06-28T17:33:27.924Z,37.33
2018-06-28T17:38:55.918Z,37.93
2018-06-28T17:41:36.776Z,38.14
2018-06-28T17:44:14.653Z,40.54
2018-06-28T17:46:49.390Z,41.25
2018-06-28T17:49:29.362Z,41.03
2018-06-28T17:52:15.403Z,40.67
2018-06-28T17:54:53.445Z,40.86
2018-06-28T17:57:26.852Z,40.67
2018-06-28T18:00:01.873Z,40.99
2018-06-28T18:02:38.766Z,41.37
2018-06-28T18:05:15.448Z,41.54
2018-06-28T18:07:49.930Z,41.83
2018-06-28T18:10:31.878Z,41.79
2018-06-28T18:13:07.042Z,42.66
2018-06-28T18:15:45.264Z,42.02
2018-06-28T18:18:31.366Z,42.49
2018-06-28T18:21:12.662Z,42.70
2018-06-28T18:23:48.039Z,42.38
2018-06-28T18:26:23.191Z,42.69
2018-06-28T18:28:57.766Z,43.06
2018-06-28T18:31:37.870Z,43.28
2018-06-28T18:34:14.228Z,43.85
2018-06-28T18:36:51.981Z,44.67
2018-06-28T18:39:26.214Z,44.85
2018-06-28T18:42:03.601Z,45.30
2018-06-28T18:44:42.294Z,45.33
2018-06-28T18:47:19.448Z,45.39
2018-06-28T18:49:56.164Z,46.13
2018-06-28T18:52:31.600Z,46.03
2018-06-28T18:55:07.689Z,46.08
2018-06-28T18:57:42.402Z,46.13
2018-06-28T19:00:16.449Z,46.56
2018-06-28T19:02:54.813Z,46.13
2018-06-28T19:05:28.643Z,45.93
2018-06-28T19:08:06.321Z,45.92
2018-06-28T19:10:45.180Z,45.98
2018-06-28T19:13:21.236Z,45.53
2018-06-28T19:16:01.465Z,46.31
2018-06-28T19:18:35.295Z,46.69
2018-06-28T19:21:15.665Z,47.09
2018-06-28T19:24:00.550Z,46.76
2018-06-28T19:26:37.326Z,46.87
2018-06-28T19:29:19.175Z,47.47
2018-06-28T19:32:00.359Z,48.15
2018-06-28T19:34:35.529Z,48.86
2018-06-28T19:37:14.065Z,49.80
2018-06-28T19:39:55.660Z,50.63
2018-06-28T19:42:41.705Z,50.86
2018-06-28T19:45:21.103Z,50.80
2018-06-28T19:47:55.269Z,50.85
2018-06-28T19:50:37.054Z,50.44
2018-06-28T19:53:18.409Z,50.85
2018-06-28T19:55:51.790Z,50.95
2018-06-28T19:58:33.195Z,51.12
2018-06-28T20:01:11.939Z,51.00
2018-06-28T20:03:50.400Z,50.97
2018-06-28T20:06:26.752Z,50.75
2018-06-28T20:09:12.395Z,51.05
2018-06-28T20:11:51.987Z,51.13
2018-06-28T20:15:31.153Z,51.19
2018-06-28T20:18:13.123Z,51.55
2018-06-28T20:20:51.676Z,50.96
2018-06-28T20:23:36.017Z,51.59
2018-06-28T20:26:22.491Z,51.48
2018-06-28T20:29:11.123Z,51.81
2018-06-28T20:31:53.476Z,52.32
2018-06-28T20:34:28.571Z,52.49
2018-06-28T20:37:05.511Z,52.88
2018-06-28T20:39:46.413Z,52.90
2018-06-28T20:42:19.843Z,53.67
2018-06-28T20:45:00.812Z,53.17
2018-06-28T20:47:40.095Z,53.43
2018-06-28T20:50:16.997Z,53.45
2018-06-28T20:52:56.545Z,53.56
2018-06-28T21:11:20.008Z,54.73
2018-06-28T21:14:03.306Z,54.67
2018-06-28T21:16:49.023Z,54.65
2018-06-28T21:19:29.288Z,54.55
2018-06-28T21:22:03.260Z,54.99
2018-06-28T21:24:41.695Z,55.39
2018-06-28T21:27:21.831Z,55.63
2018-06-28T21:30:02.666Z,55.57
2018-06-28T21:32:38.911Z,55.88
2018-06-28T21:35:13.869Z,55.91
2018-06-28T21:37:51.419Z,56.84
2018-06-28T21:40:33.722Z,56.79
2018-06-28T21:43:19.876Z,56.32
2018-06-28T21:46:06.683Z,57.14
2018-06-28T21:48:51.931Z,57.39
2018-06-28T21:51:40.706Z,57.21
2018-06-28T21:54:30.787Z,57.45
2018-06-28T21:57:18.731Z,57.46
2018-06-28T22:00:09.269Z,57.50
2018-06-28T22:02:56.402Z,57.35
2018-06-28T22:05:36.990Z,57.40
2018-06-28T22:08:27.618Z,57.77
2018-06-28T22:11:14.160Z,57.62
2018-06-28T22:13:57.446Z,57.70
2018-06-28T22:16:42.190Z,57.67
2018-06-28T22:19:31.406Z,58.00
2018-06-28T22:22:22.072Z,58.73
2018-06-28T22:25:10.702Z,58.62
2018-06-28T22:27:48.499Z,58.67
2018-06-28T22:30:36.553Z,59.40
2018-06-28T22:33:24.905Z,59.60
2018-06-28T22:36:18.430Z,58.52
2018-06-28T22:39:08.143Z,59.77
2018-06-28T22:41:52.107Z,59.40
2018-06-28T22:44:41.117Z,59.65
2018-06-28T22:47:32.811Z,60.12
2018-06-28T22:50:18.177Z,59.63
2018-06-28T22:53:13.981Z,60.27
2018-06-28T22:56:02.399Z,59.57
2018-06-28T22:58:54.169Z,60.21
2018-06-28T23:01:34.128Z,59.81
2018-06-28T23:04:10.796Z,60.12
2018-06-28T23:06:55.685Z,60.75
2018-06-28T23:09:44.220Z,60.55
2018-06-28T23:12:30.660Z,61.28
2018-06-28T23:15:18.226Z,61.74
2018-06-28T23:18:07.650Z,61.32
2018-06-28T23:20:56.145Z,61.53
2018-06-28T23:23:47.396Z,62.07
2018-06-28T23:26:32.398Z,61.88
2018-06-28T23:29:17.231Z,62.16
2018-06-28T23:32:11.065Z,61.83
2018-06-28T23:37:44.850Z,62.54
2018-06-28T23:40:33.878Z,62.99
2018-06-28T23:43:16.256Z,63.42
2018-06-28T23:46:08.056Z,62.82
2018-06-28T23:49:01.407Z,63.06
2018-06-28T23:51:48.090Z,62.78
2018-06-28T23:54:37.728Z,62.95
2018-06-28T23:57:24.943Z,63.55
